sensor_id;sensor_type;location;lat;lon;timestamp;P1;durP1;ratioP1;P2;durP2;ratioP2
1436;SDS011;712;51.026;13.792;2023-07-20T00:00:46;5.53;;;2.60;;
1436;SDS011;712;51.026;13.792;2023-07-20T00:03:12;6.38;;;3.20;;
1436;SDS011;712;51.026;13.792;2023-07-20T00:05:44;6.13;;;2.80;;
1436;SDS011;712;51.026;13.792;2023-07-20T00:08:09;8.90;;;3.33;;
1436;SDS011;712;51.026;13.792;2023-07-20T00:10:34;5.13;;;2.67;;
1436;SDS011;712;51.026;13.792;2023-07-20T00:12:59;5.60;;;2.60;;
1436;SDS011;712;51.026;13.792;2023-07-20T00:15:24;5.77;;;2.60;;
1436;SDS011;712;51.026;13.792;2023-07-20T00:17:50;9.53;;;3.33;;
1436;SDS011;712;51.026;13.792;2023-07-20T00:20:15;6.00;;;3.00;;
1436;SDS011;712;51.026;13.792;2023-07-20T00:22:40;8.10;;;3.23;;
1436;SDS011;712;51.026;13.792;2023-07-20T00:25:05;4.60;;;2.40;;
1436;SDS011;712;51.026;13.792;2023-07-20T00:27:30;5.10;;;3.10;;
1436;SDS011;712;51.026;13.792;2023-07-20T00:29:56;6.27;;;3.10;;
1436;SDS011;712;51.026;13.792;2023-07-20T00:32:21;5.30;;;2.60;;
1436;SDS011;712;51.026;13.792;2023-07-20T00:34:46;4.43;;;2.35;;
1436;SDS011;712;51.026;13.792;2023-07-20T00:37:11;6.80;;;2.90;;
1436;SDS011;712;51.026;13.792;2023-07-20T00:39:37;6.03;;;2.67;;
1436;SDS011;712;51.026;13.792;2023-07-20T00:42:02;4.60;;;2.27;;
1436;SDS011;712;51.026;13.792;2023-07-20T00:44:27;5.83;;;2.90;;
1436;SDS011;712;51.026;13.792;2023-07-20T00:46:53;5.07;;;2.60;;
1436;SDS011;712;51.026;13.792;2023-07-20T00:49:18;4.60;;;2.40;;
1436;SDS011;712;51.026;13.792;2023-07-20T00:51:46;5.40;;;2.55;;
1436;SDS011;712;51.026;13.792;2023-07-20T00:54:11;4.88;;;2.28;;
1436;SDS011;712;51.026;13.792;2023-07-20T00:56:36;6.00;;;2.40;;
1436;SDS011;712;51.026;13.792;2023-07-20T00:59:02;4.13;;;2.00;;
1436;SDS011;712;51.026;13.792;2023-07-20T01:01:27;4.65;;;2.28;;
1436;SDS011;712;51.026;13.792;2023-07-20T01:03:52;5.82;;;2.40;;
1436;SDS011;712;51.026;13.792;2023-07-20T01:06:34;5.57;;;1.83;;
1436;SDS011;712;51.026;13.792;2023-07-20T01:11:43;6.18;;;1.80;;
1436;SDS011;712;51.026;13.792;2023-07-20T01:14:13;4.75;;;1.50;;
1436;SDS011;712;51.026;13.792;2023-07-20T01:16:39;5.03;;;1.67;;
1436;SDS011;712;51.026;13.792;2023-07-20T01:19:04;7.50;;;1.80;;
1436;SDS011;712;51.026;13.792;2023-07-20T01:21:31;4.25;;;1.52;;
1436;SDS011;712;51.026;13.792;2023-07-20T01:31:58;4.15;;;1.42;;
1436;SDS011;712;51.026;13.792;2023-07-20T01:34:25;3.80;;;1.42;;
1436;SDS011;712;51.026;13.792;2023-07-20T01:36:52;3.95;;;1.40;;
1436;SDS011;712;51.026;13.792;2023-07-20T01:39:17;4.55;;;1.50;;
1436;SDS011;712;51.026;13.792;2023-07-20T01:41:43;3.92;;;1.60;;
1436;SDS011;712;51.026;13.792;2023-07-20T01:44:09;4.10;;;1.52;;
1436;SDS011;712;51.026;13.792;2023-07-20T01:46:34;4.70;;;1.97;;
1436;SDS011;712;51.026;13.792;2023-07-20T01:48:59;5.63;;;1.93;;
1436;SDS011;712;51.026;13.792;2023-07-20T01:51:24;5.83;;;2.07;;
1436;SDS011;712;51.026;13.792;2023-07-20T01:53:49;4.33;;;1.87;;
1436;SDS011;712;51.026;13.792;2023-07-20T01:56:15;7.80;;;2.10;;
1436;SDS011;712;51.026;13.792;2023-07-20T01:58:40;4.47;;;1.98;;
1436;SDS011;712;51.026;13.792;2023-07-20T02:01:05;6.93;;;2.47;;
1436;SDS011;712;51.026;13.792;2023-07-20T02:03:31;6.55;;;2.10;;
1436;SDS011;712;51.026;13.792;2023-07-20T02:05:56;7.07;;;2.23;;
1436;SDS011;712;51.026;13.792;2023-07-20T02:08:24;4.15;;;2.00;;
1436;SDS011;712;51.026;13.792;2023-07-20T02:10:50;5.30;;;2.07;;
1436;SDS011;712;51.026;13.792;2023-07-20T02:15:41;5.47;;;2.10;;
1436;SDS011;712;51.026;13.792;2023-07-20T02:18:07;4.20;;;1.80;;
1436;SDS011;712;51.026;13.792;2023-07-20T02:20:32;5.30;;;1.90;;
1436;SDS011;712;51.026;13.792;2023-07-20T02:22:58;7.82;;;2.30;;
1436;SDS011;712;51.026;13.792;2023-07-20T02:25:23;5.57;;;2.10;;
1436;SDS011;712;51.026;13.792;2023-07-20T02:27:48;5.23;;;2.30;;
1436;SDS011;712;51.026;13.792;2023-07-20T02:30:13;7.47;;;2.80;;
1436;SDS011;712;51.026;13.792;2023-07-20T02:32:39;5.50;;;2.53;;
1436;SDS011;712;51.026;13.792;2023-07-20T02:35:04;5.30;;;2.60;;
1436;SDS011;712;51.026;13.792;2023-07-20T02:37:30;4.90;;;2.35;;
1436;SDS011;712;51.026;13.792;2023-07-20T02:39:55;8.07;;;2.58;;
1436;SDS011;712;51.026;13.792;2023-07-20T02:42:20;8.10;;;2.53;;
1436;SDS011;712;51.026;13.792;2023-07-20T02:44:48;4.95;;;2.30;;
1436;SDS011;712;51.026;13.792;2023-07-20T02:47:13;6.28;;;2.60;;
1436;SDS011;712;51.026;13.792;2023-07-20T02:49:38;5.10;;;2.60;;
1436;SDS011;712;51.026;13.792;2023-07-20T02:52:03;5.30;;;2.67;;
1436;SDS011;712;51.026;13.792;2023-07-20T02:54:29;7.18;;;3.10;;
1436;SDS011;712;51.026;13.792;2023-07-20T02:56:55;8.00;;;3.00;;
1436;SDS011;712;51.026;13.792;2023-07-20T02:59:20;7.50;;;2.90;;
1436;SDS011;712;51.026;13.792;2023-07-20T03:01:45;5.55;;;2.67;;
1436;SDS011;712;51.026;13.792;2023-07-20T03:04:11;5.47;;;3.05;;
1436;SDS011;712;51.026;13.792;2023-07-20T03:06:36;8.33;;;2.97;;
1436;SDS011;712;51.026;13.792;2023-07-20T03:09:02;6.78;;;3.45;;
1436;SDS011;712;51.026;13.792;2023-07-20T03:11:27;5.15;;;3.00;;
1436;SDS011;712;51.026;13.792;2023-07-20T03:13:52;6.30;;;2.87;;
1436;SDS011;712;51.026;13.792;2023-07-20T03:16:17;6.60;;;3.40;;
1436;SDS011;712;51.026;13.792;2023-07-20T03:18:43;6.68;;;3.28;;
1436;SDS011;712;51.026;13.792;2023-07-20T03:21:08;7.93;;;3.30;;
1436;SDS011;712;51.026;13.792;2023-07-20T03:23:36;7.13;;;3.30;;
1436;SDS011;712;51.026;13.792;2023-07-20T03:26:01;6.53;;;3.40;;
1436;SDS011;712;51.026;13.792;2023-07-20T03:28:26;8.10;;;3.37;;
1436;SDS011;712;51.026;13.792;2023-07-20T03:30:55;7.00;;;3.60;;
1436;SDS011;712;51.026;13.792;2023-07-20T03:33:25;6.05;;;3.40;;
1436;SDS011;712;51.026;13.792;2023-07-20T03:35:50;7.70;;;3.97;;
1436;SDS011;712;51.026;13.792;2023-07-20T03:38:15;8.07;;;3.58;;
1436;SDS011;712;51.026;13.792;2023-07-20T03:40:48;6.47;;;3.60;;
1436;SDS011;712;51.026;13.792;2023-07-20T03:43:13;8.40;;;3.60;;
1436;SDS011;712;51.026;13.792;2023-07-20T03:45:39;7.25;;;3.72;;
1436;SDS011;712;51.026;13.792;2023-07-20T03:48:04;5.72;;;3.38;;
1436;SDS011;712;51.026;13.792;2023-07-20T03:50:30;6.03;;;3.33;;
1436;SDS011;712;51.026;13.792;2023-07-20T03:52:56;6.67;;;3.73;;
1436;SDS011;712;51.026;13.792;2023-07-20T03:55:21;7.37;;;3.63;;
1436;SDS011;712;51.026;13.792;2023-07-20T03:57:46;7.70;;;3.47;;
1436;SDS011;712;51.026;13.792;2023-07-20T04:00:11;7.07;;;3.67;;
1436;SDS011;712;51.026;13.792;2023-07-20T04:02:37;6.47;;;3.10;;
1436;SDS011;712;51.026;13.792;2023-07-20T04:05:02;9.67;;;3.73;;
1436;SDS011;712;51.026;13.792;2023-07-20T04:07:27;6.00;;;3.07;;
1436;SDS011;712;51.026;13.792;2023-07-20T04:09:52;8.17;;;3.47;;
1436;SDS011;712;51.026;13.792;2023-07-20T04:12:18;7.30;;;3.67;;
1436;SDS011;712;51.026;13.792;2023-07-20T04:14:43;7.72;;;3.50;;
1436;SDS011;712;51.026;13.792;2023-07-20T04:17:08;6.30;;;3.27;;
1436;SDS011;712;51.026;13.792;2023-07-20T04:19:33;7.83;;;3.80;;
1436;SDS011;712;51.026;13.792;2023-07-20T04:21:58;7.37;;;3.47;;
1436;SDS011;712;51.026;13.792;2023-07-20T04:24:24;7.67;;;3.90;;
1436;SDS011;712;51.026;13.792;2023-07-20T04:26:49;7.33;;;3.43;;
1436;SDS011;712;51.026;13.792;2023-07-20T04:29:14;6.33;;;3.90;;
1436;SDS011;712;51.026;13.792;2023-07-20T04:31:39;6.13;;;3.40;;
1436;SDS011;712;51.026;13.792;2023-07-20T04:34:04;6.87;;;3.00;;
1436;SDS011;712;51.026;13.792;2023-07-20T04:36:29;8.18;;;3.25;;
1436;SDS011;712;51.026;13.792;2023-07-20T04:38:54;6.72;;;2.90;;
1436;SDS011;712;51.026;13.792;2023-07-20T04:41:20;9.33;;;3.47;;
1436;SDS011;712;51.026;13.792;2023-07-20T04:43:45;8.75;;;3.47;;
1436;SDS011;712;51.026;13.792;2023-07-20T04:46:11;9.60;;;3.53;;
1436;SDS011;712;51.026;13.792;2023-07-20T04:48:36;7.13;;;3.90;;
1436;SDS011;712;51.026;13.792;2023-07-20T04:51:02;7.90;;;3.10;;
1436;SDS011;712;51.026;13.792;2023-07-20T04:53:28;7.00;;;3.00;;
1436;SDS011;712;51.026;13.792;2023-07-20T04:55:53;6.40;;;2.90;;
1436;SDS011;712;51.026;13.792;2023-07-20T04:58:19;7.65;;;3.47;;
1436;SDS011;712;51.026;13.792;2023-07-20T05:00:44;8.82;;;3.90;;
1436;SDS011;712;51.026;13.792;2023-07-20T05:03:10;9.60;;;3.50;;
1436;SDS011;712;51.026;13.792;2023-07-20T05:05:35;11.10;;;4.15;;
1436;SDS011;712;51.026;13.792;2023-07-20T05:08:00;11.13;;;4.80;;
1436;SDS011;712;51.026;13.792;2023-07-20T05:10:25;6.90;;;3.37;;
1436;SDS011;712;51.026;13.792;2023-07-20T05:12:50;7.80;;;3.90;;
1436;SDS011;712;51.026;13.792;2023-07-20T05:15:16;9.07;;;4.50;;
1436;SDS011;712;51.026;13.792;2023-07-20T05:17:41;8.47;;;5.00;;
1436;SDS011;712;51.026;13.792;2023-07-20T05:20:06;5.97;;;3.33;;
1436;SDS011;712;51.026;13.792;2023-07-20T05:22:31;7.22;;;3.45;;
1436;SDS011;712;51.026;13.792;2023-07-20T05:24:56;8.30;;;4.10;;
1436;SDS011;712;51.026;13.792;2023-07-20T05:27:22;8.03;;;3.57;;
1436;SDS011;712;51.026;13.792;2023-07-20T05:29:47;9.43;;;3.80;;
1436;SDS011;712;51.026;13.792;2023-07-20T05:32:12;6.77;;;3.27;;
1436;SDS011;712;51.026;13.792;2023-07-20T05:34:38;6.88;;;2.92;;
1436;SDS011;712;51.026;13.792;2023-07-20T05:37:03;6.20;;;3.33;;
1436;SDS011;712;51.026;13.792;2023-07-20T05:39:28;6.03;;;3.30;;
1436;SDS011;712;51.026;13.792;2023-07-20T05:41:53;6.15;;;2.90;;
1436;SDS011;712;51.026;13.792;2023-07-20T05:44:19;6.57;;;3.35;;
1436;SDS011;712;51.026;13.792;2023-07-20T05:46:44;8.37;;;2.97;;
1436;SDS011;712;51.026;13.792;2023-07-20T05:49:09;6.67;;;3.03;;
1436;SDS011;712;51.026;13.792;2023-07-20T05:51:34;10.20;;;3.47;;
1436;SDS011;712;51.026;13.792;2023-07-20T05:53:59;6.65;;;2.92;;
1436;SDS011;712;51.026;13.792;2023-07-20T05:56:25;7.53;;;3.23;;
1436;SDS011;712;51.026;13.792;2023-07-20T05:58:50;12.02;;;3.45;;
1436;SDS011;712;51.026;13.792;2023-07-20T06:01:15;7.30;;;2.90;;
1436;SDS011;712;51.026;13.792;2023-07-20T06:03:40;9.00;;;3.47;;
1436;SDS011;712;51.026;13.792;2023-07-20T06:06:06;9.48;;;3.22;;
1436;SDS011;712;51.026;13.792;2023-07-20T06:08:31;7.13;;;2.80;;
1436;SDS011;712;51.026;13.792;2023-07-20T06:10:57;6.90;;;3.13;;
1436;SDS011;712;51.026;13.792;2023-07-20T06:13:22;5.68;;;3.10;;
1436;SDS011;712;51.026;13.792;2023-07-20T06:15:48;6.18;;;3.08;;
1436;SDS011;712;51.026;13.792;2023-07-20T06:18:13;7.18;;;3.20;;
1436;SDS011;712;51.026;13.792;2023-07-20T06:20:39;5.82;;;3.00;;
1436;SDS011;712;51.026;13.792;2023-07-20T06:23:04;8.37;;;3.17;;
1436;SDS011;712;51.026;13.792;2023-07-20T06:25:29;8.67;;;3.87;;
1436;SDS011;712;51.026;13.792;2023-07-20T06:27:55;9.70;;;5.40;;
1436;SDS011;712;51.026;13.792;2023-07-20T06:30:20;15.95;;;6.05;;
1436;SDS011;712;51.026;13.792;2023-07-20T06:32:45;12.83;;;6.53;;
1436;SDS011;712;51.026;13.792;2023-07-20T06:35:11;7.33;;;4.50;;
1436;SDS011;712;51.026;13.792;2023-07-20T06:37:36;10.83;;;5.13;;
1436;SDS011;712;51.026;13.792;2023-07-20T06:40:04;11.83;;;5.73;;
1436;SDS011;712;51.026;13.792;2023-07-20T06:42:29;8.85;;;5.60;;
1436;SDS011;712;51.026;13.792;2023-07-20T06:44:55;9.18;;;5.43;;
1436;SDS011;712;51.026;13.792;2023-07-20T06:47:20;14.17;;;8.30;;
1436;SDS011;712;51.026;13.792;2023-07-20T06:49:45;11.57;;;6.50;;
1436;SDS011;712;51.026;13.792;2023-07-20T06:52:10;12.37;;;7.53;;
1436;SDS011;712;51.026;13.792;2023-07-20T06:54:35;8.97;;;6.37;;
1436;SDS011;712;51.026;13.792;2023-07-20T06:57:00;11.25;;;8.18;;
1436;SDS011;712;51.026;13.792;2023-07-20T06:59:25;11.27;;;8.47;;
1436;SDS011;712;51.026;13.792;2023-07-20T07:01:51;11.83;;;9.20;;
1436;SDS011;712;51.026;13.792;2023-07-20T07:04:16;14.27;;;8.93;;
1436;SDS011;712;51.026;13.792;2023-07-20T07:06:41;12.70;;;9.23;;
1436;SDS011;712;51.026;13.792;2023-07-20T07:09:06;14.27;;;10.05;;
1436;SDS011;712;51.026;13.792;2023-07-20T07:11:33;16.80;;;9.95;;
1436;SDS011;712;51.026;13.792;2023-07-20T07:13:58;11.33;;;8.17;;
1436;SDS011;712;51.026;13.792;2023-07-20T07:16:23;8.93;;;5.87;;
1436;SDS011;712;51.026;13.792;2023-07-20T07:18:50;12.25;;;6.63;;
1436;SDS011;712;51.026;13.792;2023-07-20T07:21:15;8.32;;;5.15;;
1436;SDS011;712;51.026;13.792;2023-07-20T07:23:40;9.30;;;6.53;;
1436;SDS011;712;51.026;13.792;2023-07-20T07:26:05;10.03;;;6.03;;
1436;SDS011;712;51.026;13.792;2023-07-20T07:28:30;13.67;;;5.90;;
1436;SDS011;712;51.026;13.792;2023-07-20T07:30:56;11.25;;;5.70;;
1436;SDS011;712;51.026;13.792;2023-07-20T07:33:22;10.27;;;6.03;;
1436;SDS011;712;51.026;13.792;2023-07-20T07:35:47;11.45;;;6.95;;
1436;SDS011;712;51.026;13.792;2023-07-20T07:38:12;11.20;;;7.00;;
1436;SDS011;712;51.026;13.792;2023-07-20T07:40:38;12.80;;;7.87;;
1436;SDS011;712;51.026;13.792;2023-07-20T07:43:03;11.03;;;6.10;;
1436;SDS011;712;51.026;13.792;2023-07-20T07:45:28;13.23;;;6.47;;
1436;SDS011;712;51.026;13.792;2023-07-20T07:47:53;10.30;;;6.33;;
1436;SDS011;712;51.026;13.792;2023-07-20T07:50:18;14.03;;;6.47;;
1436;SDS011;712;51.026;13.792;2023-07-20T07:52:44;10.83;;;6.27;;
1436;SDS011;712;51.026;13.792;2023-07-20T07:55:09;12.33;;;6.20;;
1436;SDS011;712;51.026;13.792;2023-07-20T07:57:34;10.87;;;5.93;;
1436;SDS011;712;51.026;13.792;2023-07-20T07:59:59;13.30;;;5.53;;
1436;SDS011;712;51.026;13.792;2023-07-20T08:02:24;11.13;;;4.77;;
1436;SDS011;712;51.026;13.792;2023-07-20T08:04:49;16.00;;;5.23;;
1436;SDS011;712;51.026;13.792;2023-07-20T08:07:17;20.48;;;5.63;;
1436;SDS011;712;51.026;13.792;2023-07-20T08:09:42;13.07;;;6.40;;
1436;SDS011;712;51.026;13.792;2023-07-20T08:12:07;9.07;;;4.93;;
1436;SDS011;712;51.026;13.792;2023-07-20T08:14:32;7.55;;;4.80;;
1436;SDS011;712;51.026;13.792;2023-07-20T08:16:57;11.60;;;6.13;;
1436;SDS011;712;51.026;13.792;2023-07-20T08:19:23;8.02;;;5.18;;
1436;SDS011;712;51.026;13.792;2023-07-20T08:21:48;9.35;;;5.60;;
1436;SDS011;712;51.026;13.792;2023-07-20T08:24:14;7.63;;;5.30;;
1436;SDS011;712;51.026;13.792;2023-07-20T08:26:39;10.90;;;5.30;;
1436;SDS011;712;51.026;13.792;2023-07-20T08:29:04;7.40;;;4.43;;
1436;SDS011;712;51.026;13.792;2023-07-20T08:31:29;7.82;;;5.40;;
1436;SDS011;712;51.026;13.792;2023-07-20T08:33:54;7.70;;;5.47;;
1436;SDS011;712;51.026;13.792;2023-07-20T08:36:21;9.70;;;6.88;;
1436;SDS011;712;51.026;13.792;2023-07-20T08:38:46;8.33;;;5.33;;
1436;SDS011;712;51.026;13.792;2023-07-20T08:41:12;11.30;;;5.07;;
1436;SDS011;712;51.026;13.792;2023-07-20T08:43:38;7.05;;;5.22;;
1436;SDS011;712;51.026;13.792;2023-07-20T08:46:07;7.70;;;5.07;;
1436;SDS011;712;51.026;13.792;2023-07-20T08:48:32;5.75;;;4.05;;
1436;SDS011;712;51.026;13.792;2023-07-20T08:50:58;6.18;;;4.10;;
1436;SDS011;712;51.026;13.792;2023-07-20T08:53:25;8.63;;;5.45;;
1436;SDS011;712;51.026;13.792;2023-07-20T08:55:51;9.47;;;5.37;;
1436;SDS011;712;51.026;13.792;2023-07-20T08:58:17;6.53;;;4.82;;
1436;SDS011;712;51.026;13.792;2023-07-20T09:00:43;5.97;;;4.45;;
1436;SDS011;712;51.026;13.792;2023-07-20T09:03:08;9.02;;;4.63;;
1436;SDS011;712;51.026;13.792;2023-07-20T09:05:33;7.93;;;4.95;;
1436;SDS011;712;51.026;13.792;2023-07-20T09:08:00;7.18;;;4.53;;
1436;SDS011;712;51.026;13.792;2023-07-20T09:10:25;8.47;;;4.90;;
1436;SDS011;712;51.026;13.792;2023-07-20T09:12:50;7.27;;;4.40;;
1436;SDS011;712;51.026;13.792;2023-07-20T09:15:15;6.63;;;3.57;;
1436;SDS011;712;51.026;13.792;2023-07-20T09:17:48;7.60;;;3.63;;
1436;SDS011;712;51.026;13.792;2023-07-20T09:20:14;6.78;;;4.03;;
1436;SDS011;712;51.026;13.792;2023-07-20T09:22:39;6.70;;;4.35;;
1436;SDS011;712;51.026;13.792;2023-07-20T09:25:11;8.15;;;4.00;;
1436;SDS011;712;51.026;13.792;2023-07-20T09:27:38;5.78;;;3.63;;
1436;SDS011;712;51.026;13.792;2023-07-20T09:30:04;6.47;;;4.07;;
1436;SDS011;712;51.026;13.792;2023-07-20T09:32:29;6.30;;;3.95;;
1436;SDS011;712;51.026;13.792;2023-07-20T09:34:54;6.63;;;3.50;;
1436;SDS011;712;51.026;13.792;2023-07-20T09:37:20;5.20;;;3.30;;
1436;SDS011;712;51.026;13.792;2023-07-20T09:39:46;5.13;;;3.33;;
1436;SDS011;712;51.026;13.792;2023-07-20T09:42:11;6.07;;;3.57;;
1436;SDS011;712;51.026;13.792;2023-07-20T09:44:37;6.47;;;3.83;;
1436;SDS011;712;51.026;13.792;2023-07-20T09:47:03;4.70;;;3.30;;
1436;SDS011;712;51.026;13.792;2023-07-20T09:49:28;5.10;;;2.87;;
1436;SDS011;712;51.026;13.792;2023-07-20T09:51:53;5.20;;;3.27;;
1436;SDS011;712;51.026;13.792;2023-07-20T09:54:18;6.40;;;3.00;;
1436;SDS011;712;51.026;13.792;2023-07-20T09:56:46;4.80;;;3.60;;
1436;SDS011;712;51.026;13.792;2023-07-20T09:59:13;4.70;;;3.15;;
1436;SDS011;712;51.026;13.792;2023-07-20T10:01:39;4.30;;;3.28;;
1436;SDS011;712;51.026;13.792;2023-07-20T10:04:07;4.88;;;3.38;;
1436;SDS011;712;51.026;13.792;2023-07-20T10:06:33;5.43;;;3.40;;
1436;SDS011;712;51.026;13.792;2023-07-20T10:09:00;5.13;;;3.67;;
1436;SDS011;712;51.026;13.792;2023-07-20T10:11:26;6.03;;;3.88;;
1436;SDS011;712;51.026;13.792;2023-07-20T10:13:54;5.95;;;4.40;;
1436;SDS011;712;51.026;13.792;2023-07-20T10:16:24;6.22;;;4.53;;
1436;SDS011;712;51.026;13.792;2023-07-20T10:21:25;6.90;;;5.25;;
1436;SDS011;712;51.026;13.792;2023-07-20T10:23:50;8.05;;;5.20;;
1436;SDS011;712;51.026;13.792;2023-07-20T10:26:16;7.45;;;5.07;;
1436;SDS011;712;51.026;13.792;2023-07-20T10:28:41;7.90;;;4.73;;
1436;SDS011;712;51.026;13.792;2023-07-20T10:31:07;8.10;;;6.35;;
1436;SDS011;712;51.026;13.792;2023-07-20T10:33:33;9.63;;;6.30;;
1436;SDS011;712;51.026;13.792;2023-07-20T10:36:02;6.40;;;5.13;;
1436;SDS011;712;51.026;13.792;2023-07-20T10:41:21;7.72;;;5.18;;
1436;SDS011;712;51.026;13.792;2023-07-20T10:43:49;7.38;;;5.03;;
1436;SDS011;712;51.026;13.792;2023-07-20T10:46:14;7.27;;;4.97;;
1436;SDS011;712;51.026;13.792;2023-07-20T10:49:22;7.37;;;5.77;;
1436;SDS011;712;51.026;13.792;2023-07-20T10:51:29;7.90;;;5.25;;
1436;SDS011;712;51.026;13.792;2023-07-20T10:53:55;6.60;;;4.80;;
1436;SDS011;712;51.026;13.792;2023-07-20T10:56:22;7.10;;;5.00;;
1436;SDS011;712;51.026;13.792;2023-07-20T10:58:48;6.13;;;4.15;;
1436;SDS011;712;51.026;13.792;2023-07-20T11:01:14;6.53;;;3.90;;
1436;SDS011;712;51.026;13.792;2023-07-20T11:03:40;6.20;;;3.95;;
1436;SDS011;712;51.026;13.792;2023-07-20T11:08:50;7.70;;;3.88;;
1436;SDS011;712;51.026;13.792;2023-07-20T11:11:23;6.00;;;3.60;;
1436;SDS011;712;51.026;13.792;2023-07-20T11:13:58;5.68;;;3.40;;
1436;SDS011;712;51.026;13.792;2023-07-20T11:16:33;6.45;;;3.83;;
1436;SDS011;712;51.026;13.792;2023-07-20T11:18:58;8.63;;;4.57;;
1436;SDS011;712;51.026;13.792;2023-07-20T11:21:24;5.78;;;3.95;;
1436;SDS011;712;51.026;13.792;2023-07-20T11:23:49;6.33;;;3.80;;
1436;SDS011;712;51.026;13.792;2023-07-20T11:26:15;5.00;;;3.70;;
1436;SDS011;712;51.026;13.792;2023-07-20T11:28:40;5.55;;;3.97;;
1436;SDS011;712;51.026;13.792;2023-07-20T11:31:06;6.30;;;4.40;;
1436;SDS011;712;51.026;13.792;2023-07-20T11:33:31;5.53;;;3.87;;
1436;SDS011;712;51.026;13.792;2023-07-20T11:35:56;6.13;;;4.05;;
1436;SDS011;712;51.026;13.792;2023-07-20T11:38:23;6.43;;;4.72;;
1436;SDS011;712;51.026;13.792;2023-07-20T11:40:48;6.85;;;5.28;;
1436;SDS011;712;51.026;13.792;2023-07-20T11:43:14;6.03;;;4.93;;
1436;SDS011;712;51.026;13.792;2023-07-20T11:45:39;6.82;;;5.32;;
1436;SDS011;712;51.026;13.792;2023-07-20T11:48:05;6.47;;;4.93;;
1436;SDS011;712;51.026;13.792;2023-07-20T11:50:30;6.80;;;5.43;;
1436;SDS011;712;51.026;13.792;2023-07-20T11:52:55;7.47;;;5.10;;
1436;SDS011;712;51.026;13.792;2023-07-20T11:55:21;7.18;;;5.47;;
1436;SDS011;712;51.026;13.792;2023-07-20T11:58:02;7.05;;;4.75;;
1436;SDS011;712;51.026;13.792;2023-07-20T12:00:27;7.25;;;4.63;;
1436;SDS011;712;51.026;13.792;2023-07-20T12:02:53;6.10;;;4.50;;
1436;SDS011;712;51.026;13.792;2023-07-20T12:05:18;8.85;;;5.25;;
1436;SDS011;712;51.026;13.792;2023-07-20T12:07:44;6.22;;;4.65;;
1436;SDS011;712;51.026;13.792;2023-07-20T12:10:12;5.60;;;4.63;;
1436;SDS011;712;51.026;13.792;2023-07-20T12:12:38;5.72;;;4.53;;
1436;SDS011;712;51.026;13.792;2023-07-20T12:15:13;5.63;;;4.30;;
1436;SDS011;712;51.026;13.792;2023-07-20T12:17:46;7.25;;;4.20;;
1436;SDS011;712;51.026;13.792;2023-07-20T12:20:11;5.60;;;3.97;;
1436;SDS011;712;51.026;13.792;2023-07-20T12:22:40;5.22;;;3.80;;
1436;SDS011;712;51.026;13.792;2023-07-20T12:25:06;6.05;;;3.92;;
1436;SDS011;712;51.026;13.792;2023-07-20T12:29:57;7.10;;;4.60;;
1436;SDS011;712;51.026;13.792;2023-07-20T12:32:22;7.13;;;4.47;;
1436;SDS011;712;51.026;13.792;2023-07-20T12:34:48;8.73;;;4.83;;
1436;SDS011;712;51.026;13.792;2023-07-20T12:37:13;6.80;;;5.17;;
1436;SDS011;712;51.026;13.792;2023-07-20T12:39:38;9.97;;;6.00;;
1436;SDS011;712;51.026;13.792;2023-07-20T12:42:04;6.30;;;5.22;;
1436;SDS011;712;51.026;13.792;2023-07-20T12:44:29;7.05;;;5.15;;
1436;SDS011;712;51.026;13.792;2023-07-20T12:46:55;6.97;;;5.30;;
1436;SDS011;712;51.026;13.792;2023-07-20T12:49:20;6.43;;;5.23;;
1436;SDS011;712;51.026;13.792;2023-07-20T12:51:45;7.70;;;6.00;;
1436;SDS011;712;51.026;13.792;2023-07-20T12:54:10;6.70;;;5.43;;
1436;SDS011;712;51.026;13.792;2023-07-20T12:56:35;8.90;;;5.23;;
1436;SDS011;712;51.026;13.792;2023-07-20T12:59:01;5.55;;;4.25;;
1436;SDS011;712;51.026;13.792;2023-07-20T13:01:27;5.70;;;4.05;;
1436;SDS011;712;51.026;13.792;2023-07-20T13:03:53;6.60;;;4.82;;
1436;SDS011;712;51.026;13.792;2023-07-20T13:06:19;5.43;;;3.97;;
1436;SDS011;712;51.026;13.792;2023-07-20T13:08:44;6.15;;;3.92;;
1436;SDS011;712;51.026;13.792;2023-07-20T13:11:10;6.10;;;3.53;;
1436;SDS011;712;51.026;13.792;2023-07-20T13:13:35;4.70;;;2.60;;
1436;SDS011;712;51.026;13.792;2023-07-20T13:16:00;6.00;;;3.97;;
1436;SDS011;712;51.026;13.792;2023-07-20T13:18:25;4.40;;;2.80;;
1436;SDS011;712;51.026;13.792;2023-07-20T13:20:50;4.93;;;3.00;;
1436;SDS011;712;51.026;13.792;2023-07-20T13:23:15;3.83;;;2.20;;
1436;SDS011;712;51.026;13.792;2023-07-20T13:25:41;4.43;;;2.40;;
1436;SDS011;712;51.026;13.792;2023-07-20T13:28:07;5.85;;;3.00;;
1436;SDS011;712;51.026;13.792;2023-07-20T13:30:32;4.20;;;2.28;;
1436;SDS011;712;51.026;13.792;2023-07-20T13:32:58;4.60;;;2.40;;
1436;SDS011;712;51.026;13.792;2023-07-20T13:35:23;5.00;;;2.83;;
1436;SDS011;712;51.026;13.792;2023-07-20T13:37:48;4.40;;;2.38;;
1436;SDS011;712;51.026;13.792;2023-07-20T13:40:15;4.13;;;2.40;;
1436;SDS011;712;51.026;13.792;2023-07-20T13:42:41;4.68;;;2.17;;
1436;SDS011;712;51.026;13.792;2023-07-20T13:45:07;4.47;;;2.00;;
1436;SDS011;712;51.026;13.792;2023-07-20T13:47:32;4.45;;;2.10;;
1436;SDS011;712;51.026;13.792;2023-07-20T13:49:57;5.10;;;2.07;;
1436;SDS011;712;51.026;13.792;2023-07-20T13:52:23;4.90;;;2.30;;
1436;SDS011;712;51.026;13.792;2023-07-20T13:54:48;5.40;;;2.27;;
1436;SDS011;712;51.026;13.792;2023-07-20T13:57:13;4.20;;;2.00;;
1436;SDS011;712;51.026;13.792;2023-07-20T13:59:39;4.30;;;2.30;;
1436;SDS011;712;51.026;13.792;2023-07-20T14:02:05;4.53;;;2.00;;
1436;SDS011;712;51.026;13.792;2023-07-20T14:04:30;4.07;;;2.22;;
1436;SDS011;712;51.026;13.792;2023-07-20T14:06:55;4.37;;;2.13;;
1436;SDS011;712;51.026;13.792;2023-07-20T14:09:20;4.53;;;2.20;;
1436;SDS011;712;51.026;13.792;2023-07-20T14:11:46;3.77;;;1.90;;
1436;SDS011;712;51.026;13.792;2023-07-20T14:14:11;3.50;;;1.77;;
1436;SDS011;712;51.026;13.792;2023-07-20T14:16:36;3.60;;;1.60;;
1436;SDS011;712;51.026;13.792;2023-07-20T14:19:01;3.72;;;1.70;;
1436;SDS011;712;51.026;13.792;2023-07-20T14:21:26;5.10;;;1.40;;
1436;SDS011;712;51.026;13.792;2023-07-20T14:23:52;3.33;;;1.33;;
1436;SDS011;712;51.026;13.792;2023-07-20T14:26:20;3.42;;;1.45;;
1436;SDS011;712;51.026;13.792;2023-07-20T14:28:45;3.88;;;1.40;;
1436;SDS011;712;51.026;13.792;2023-07-20T14:31:11;3.23;;;1.37;;
1436;SDS011;712;51.026;13.792;2023-07-20T14:33:36;3.27;;;1.30;;
1436;SDS011;712;51.026;13.792;2023-07-20T14:36:01;3.33;;;1.60;;
1436;SDS011;712;51.026;13.792;2023-07-20T14:38:27;3.53;;;1.50;;
1436;SDS011;712;51.026;13.792;2023-07-20T14:40:52;3.70;;;1.40;;
1436;SDS011;712;51.026;13.792;2023-07-20T14:43:18;3.60;;;1.48;;
1436;SDS011;712;51.026;13.792;2023-07-20T14:45:43;3.77;;;1.53;;
1436;SDS011;712;51.026;13.792;2023-07-20T14:50:35;3.95;;;1.40;;
1436;SDS011;712;51.026;13.792;2023-07-20T14:53:00;5.30;;;1.50;;
1436;SDS011;712;51.026;13.792;2023-07-20T14:55:25;3.53;;;1.50;;
1436;SDS011;712;51.026;13.792;2023-07-20T14:57:50;3.70;;;1.38;;
1436;SDS011;712;51.026;13.792;2023-07-20T15:00:15;3.10;;;1.37;;
1436;SDS011;712;51.026;13.792;2023-07-20T15:02:41;3.40;;;1.50;;
1436;SDS011;712;51.026;13.792;2023-07-20T15:05:06;3.30;;;1.20;;
1436;SDS011;712;51.026;13.792;2023-07-20T15:07:32;3.55;;;1.58;;
1436;SDS011;712;51.026;13.792;2023-07-20T15:09:57;4.85;;;1.40;;
1436;SDS011;712;51.026;13.792;2023-07-20T15:12:22;3.63;;;1.45;;
1436;SDS011;712;51.026;13.792;2023-07-20T15:14:50;3.30;;;1.57;;
1436;SDS011;712;51.026;13.792;2023-07-20T15:17:26;4.20;;;1.70;;
1436;SDS011;712;51.026;13.792;2023-07-20T15:19:51;3.67;;;1.40;;
1436;SDS011;712;51.026;13.792;2023-07-20T15:22:17;4.60;;;1.50;;
1436;SDS011;712;51.026;13.792;2023-07-20T15:24:42;3.83;;;1.50;;
1436;SDS011;712;51.026;13.792;2023-07-20T15:27:07;4.80;;;1.40;;
1436;SDS011;712;51.026;13.792;2023-07-20T15:29:33;3.45;;;1.38;;
1436;SDS011;712;51.026;13.792;2023-07-20T15:31:58;3.37;;;1.20;;